Yarmouth Port, MA

19:14 EST le 28 janvier 2015 (GMT -0500)
Barnstable Municipal-Boardman-Polando Field | Change Station
CLOSE
Current Station
Aéroport
Location: Hyannis,
Altitude: 52 ft
Stations météo à proximité

Alt. 52 ft 41.67 °N, 70.28 °W | Updated 18 minutes ago

Couvert
Couvert
22 ° F
Paraît 13 ° F
N
7
Vent Variable Vent de Ouest

Aujourd'hui
Haut(e) -- | Bas -- ° F
--% Risque de précip.
Hier
Haut(e) -- | Bas -- ° F
Precip. -- pouce
6:57 AM 4:51 PM
Lune gibbeuse croissante, 69% visible
Pression 30.10 pouce
Visibilité 10.0 Miles terrestres
Nuages Couvert 3500 ft
Refroidissement éolien 13 ° F
Point de rosée 11 ° F
Humidité 63%
Précipitations 0.02 pouce
Profondeur de la couche neigeuse Non disponible.
UV 0 sur 12
Pollen .10 sur 12
Qualité de l'air Non disponible.
Flu Activity Non disponible.
METAR KHYA 282356Z 26006KT 10SM OVC035 M06/M12 A3009 RMK AO2 SLP191 60000 T10561117 11044 21056 51033

More Conditions Fewer Conditions

Pression 30.10 pouce
Visibilité 10.0 Miles terrestres
Nuages Couvert 3500 ft
Refroidissement éolien 13 ° F
Point de rosée 11 ° F
Humidité 63%
Précipitations 0.02 pouce
Profondeur de la couche neigeuse Non disponible.
UV 0 sur 12
Pollen .10 sur 12
Qualité de l'air Non disponible.
Flu Activity Non disponible.
METAR KHYA 282356Z 26006KT 10SM OVC035 M06/M12 A3009 RMK AO2 SLP191 60000 T10561117 11044 21056 51033

More Conditions Fewer Conditions

10-Day Weather Forecast

Almanac

Astronomie

Jan. 28, 2015 Lever Coucher
Temps réel
Crépuscule civil
Crépuscule nautique
Crépuscule astronomique
Lune
Durée de lumière visible
Longueur du jour
Tomorrow will be .
, % of the Moon is Illuminated

Extrêmes aujourd'hui

State Highs State Lows

Community

WunderPhotos

Upload Photos

1,791,302 Photos téléchargées !

WunderBlogs® & News

Nearby

Qualité de l'air

  Qualité de l'air Indice de la qualité de l'air Polluant
Not available.

Épaisseur de neige

Station Depth Altitude

Activité sismique

Ville Distance Mag. Time & Date
Minimum magnitude displayed is 2.5.

Températures des eaux côtières

Lieu Température

Stations météo à proximité